NDF255 EDDC-ESGG
Flight info
| Callsign | NDF255 |
|---|---|
| Flight time | 1h 10m |
| Altitude | 36000 |
| Route | KOBUS1W KOBUS M725 GERGA DCT BEBEB DCT UNGAV DCT NILEN L617 ARQUS ARQUS1X |
| Aircraft | B739/M-SDE2E3FGHIRWXY/LB1 |
Departure
| Time | 2026-05-03 22:45 |
|---|---|
| Airport | Dresden Airport (EDDC) |
Arrival
| Time | 2026-05-03 23:55 |
|---|---|
| Airport | Göteborg Landvetter Airport (ESGG) |
| Time | Latitude | Longitude | Altitude | Speed | Heading |
|---|---|---|---|---|---|
| 2026-05-03 22:31 | 51.12630 | 13.76546 | 750 ft | 0 kts | 221° |
| 2026-05-03 22:32 | 51.12633 | 13.76550 | 750 ft | 3 kts | 221° |
| 2026-05-03 22:33 | 51.12653 | 13.76577 | 721 ft | 3 kts | 221° |
| 2026-05-03 22:33 | 51.12668 | 13.76604 | 751 ft | 4 kts | 261° |
| 2026-05-03 22:33 | 51.12662 | 13.76639 | 746 ft | 4 kts | 309° |
| 2026-05-03 22:33 | 51.12653 | 13.76655 | 745 ft | 1 kts | 312° |
| 2026-05-03 22:34 | 51.12652 | 13.76656 | 745 ft | 0 kts | 312° |
| 2026-05-03 22:36 | 51.12653 | 13.76655 | 745 ft | 1 kts | 312° |
| 2026-05-03 22:36 | 51.12671 | 13.76622 | 747 ft | 8 kts | 311° |
| 2026-05-03 22:36 | 51.12725 | 13.76524 | 749 ft | 15 kts | 311° |
| 2026-05-03 22:37 | 51.12760 | 13.76461 | 749 ft | 2 kts | 313° |
| 2026-05-03 22:37 | 51.12771 | 13.76444 | 749 ft | 2 kts | 318° |
| 2026-05-03 22:37 | 51.12793 | 13.76431 | 749 ft | 5 kts | 354° |
| 2026-05-03 22:37 | 51.12843 | 13.76465 | 748 ft | 12 kts | 38° |
| 2026-05-03 22:38 | 51.12926 | 13.76578 | 748 ft | 19 kts | 41° |
| 2026-05-03 22:38 | 51.13038 | 13.76734 | 748 ft | 24 kts | 40° |
| 2026-05-03 22:38 | 51.13169 | 13.76910 | 749 ft | 25 kts | 41° |
| 2026-05-03 22:38 | 51.13300 | 13.77093 | 747 ft | 24 kts | 41° |
| 2026-05-03 22:39 | 51.13424 | 13.77262 | 748 ft | 23 kts | 41° |
| 2026-05-03 22:39 | 51.13543 | 13.77425 | 750 ft | 22 kts | 40° |
| 2026-05-03 22:39 | 51.13657 | 13.77586 | 747 ft | 22 kts | 41° |
| 2026-05-03 22:39 | 51.13769 | 13.77740 | 749 ft | 21 kts | 41° |
| 2026-05-03 22:40 | 51.13878 | 13.77888 | 748 ft | 20 kts | 40° |
| 2026-05-03 22:40 | 51.13983 | 13.78034 | 748 ft | 20 kts | 41° |
| 2026-05-03 22:40 | 51.14085 | 13.78175 | 749 ft | 19 kts | 41° |
| 2026-05-03 22:40 | 51.14182 | 13.78308 | 746 ft | 14 kts | 40° |
| 2026-05-03 22:41 | 51.14268 | 13.78343 | 748 ft | 14 kts | 333° |
| 2026-05-03 22:41 | 51.14321 | 13.78257 | 747 ft | 0 kts | 310° |
| 2026-05-03 22:43 | 51.14327 | 13.78245 | 750 ft | 8 kts | 310° |
| 2026-05-03 22:43 | 51.14373 | 13.78140 | 749 ft | 8 kts | 282° |
| 2026-05-03 22:43 | 51.14345 | 13.78055 | 752 ft | 9 kts | 225° |
| 2026-05-03 22:44 | 51.14325 | 13.78023 | 750 ft | 0 kts | 225° |
| 2026-05-03 22:44 | 51.14317 | 13.78010 | 750 ft | 5 kts | 225° |
| 2026-05-03 22:44 | 51.14275 | 13.77953 | 749 ft | 13 kts | 216° |
| 2026-05-03 22:44 | 51.14080 | 13.77691 | 747 ft | 74 kts | 220° |
| 2026-05-03 22:45 | 51.13493 | 13.76885 | 749 ft | 146 kts | 220° |
| 2026-05-03 22:45 | 51.12581 | 13.75713 | 995 ft | 184 kts | 218° |
| 2026-05-03 22:45 | 51.11572 | 13.74352 | 1725 ft | 195 kts | 223° |
| 2026-05-03 22:45 | 51.10597 | 13.72955 | 2805 ft | 182 kts | 226° |
| 2026-05-03 22:46 | 51.09673 | 13.71557 | 3512 ft | 191 kts | 226° |
| 2026-05-03 22:46 | 51.08651 | 13.70024 | 3762 ft | 217 kts | 224° |
| 2026-05-03 22:46 | 51.07703 | 13.68027 | 4132 ft | 231 kts | 253° |
| 2026-05-03 22:46 | 51.07753 | 13.65520 | 4765 ft | 238 kts | 288° |
| 2026-05-03 22:47 | 51.08712 | 13.63299 | 5360 ft | 250 kts | 315° |
| 2026-05-03 22:47 | 51.10258 | 13.61993 | 5902 ft | 262 kts | 341° |
| 2026-05-03 22:47 | 51.12095 | 13.61674 | 6506 ft | 269 kts | 358° |
| 2026-05-03 22:47 | 51.13975 | 13.61744 | 7105 ft | 272 kts | 0° |
| 2026-05-03 22:48 | 51.15876 | 13.61875 | 7739 ft | 273 kts | 0° |
| 2026-05-03 22:48 | 51.17782 | 13.61994 | 8374 ft | 275 kts | 360° |
| 2026-05-03 22:48 | 51.19612 | 13.62091 | 8731 ft | 250 kts | 359° |
| 2026-05-03 22:48 | 51.21291 | 13.62163 | 8671 ft | 233 kts | 358° |
| 2026-05-03 22:49 | 51.22857 | 13.62218 | 8601 ft | 217 kts | 358° |
| 2026-05-03 22:49 | 51.24331 | 13.62263 | 8423 ft | 209 kts | 358° |
| 2026-05-03 22:49 | 51.25840 | 13.62364 | 7758 ft | 227 kts | 1° |
| 2026-05-03 22:49 | 51.27520 | 13.62600 | 6933 ft | 255 kts | 5° |
| 2026-05-03 22:50 | 51.29283 | 13.62950 | 6643 ft | 255 kts | 6° |
| 2026-05-03 22:50 | 51.31025 | 13.63393 | 6416 ft | 252 kts | 8° |
| 2026-05-03 22:50 | 51.32740 | 13.63885 | 6187 ft | 249 kts | 9° |
| 2026-05-03 22:50 | 51.34450 | 13.64462 | 5715 ft | 257 kts | 12° |
| 2026-05-03 22:51 | 51.36226 | 13.65194 | 5152 ft | 269 kts | 14° |
| 2026-05-03 22:51 | 51.38023 | 13.66040 | 4889 ft | 267 kts | 15° |
| 2026-05-03 22:51 | 51.39770 | 13.66940 | 4696 ft | 262 kts | 17° |
| 2026-05-03 22:51 | 51.41440 | 13.67930 | 4667 ft | 249 kts | 20° |
| 2026-05-03 22:52 | 51.43084 | 13.68655 | 4638 ft | 243 kts | 14° |
| 2026-05-03 22:52 | 51.44581 | 13.69900 | 4651 ft | 247 kts | 36° |
| 2026-05-03 22:52 | 51.46017 | 13.71599 | 4833 ft | 270 kts | 36° |
| 2026-05-03 22:52 | 51.47617 | 13.73421 | 5311 ft | 290 kts | 35° |
| 2026-05-03 22:53 | 51.49298 | 13.75274 | 6153 ft | 295 kts | 34° |
| 2026-05-03 22:53 | 51.51000 | 13.77106 | 7168 ft | 292 kts | 33° |
| 2026-05-03 22:53 | 51.52708 | 13.78913 | 8018 ft | 297 kts | 33° |
| 2026-05-03 22:53 | 51.54462 | 13.80745 | 8840 ft | 303 kts | 32° |
| 2026-05-03 22:54 | 51.56241 | 13.82590 | 9724 ft | 306 kts | 32° |
| 2026-05-03 22:54 | 51.58049 | 13.84456 | 10416 ft | 316 kts | 32° |
| 2026-05-03 22:54 | 51.59978 | 13.86441 | 10622 ft | 342 kts | 32° |
| 2026-05-03 22:54 | 51.62135 | 13.88292 | 10951 ft | 359 kts | 17° |
| 2026-05-03 22:55 | 51.64600 | 13.89040 | 11618 ft | 363 kts | 2° |
| 2026-05-03 22:55 | 51.67124 | 13.89369 | 12417 ft | 366 kts | 1° |
| 2026-05-03 22:55 | 51.69680 | 13.89656 | 13182 ft | 371 kts | 0° |
| 2026-05-03 22:55 | 51.72273 | 13.89948 | 13914 ft | 376 kts | 0° |
| 2026-05-03 22:56 | 51.74896 | 13.90265 | 14568 ft | 381 kts | 1° |
| 2026-05-03 22:56 | 51.77552 | 13.90608 | 15231 ft | 386 kts | 1° |
| 2026-05-03 22:56 | 51.80242 | 13.90975 | 15883 ft | 390 kts | 2° |
| 2026-05-03 22:56 | 51.82967 | 13.91358 | 16527 ft | 395 kts | 2° |
| 2026-05-03 22:57 | 51.85723 | 13.91753 | 17162 ft | 400 kts | 2° |
| 2026-05-03 22:57 | 51.88517 | 13.92159 | 17801 ft | 405 kts | 3° |
| 2026-05-03 22:57 | 51.91341 | 13.92571 | 18411 ft | 410 kts | 3° |
| 2026-05-03 22:57 | 51.94189 | 13.92989 | 19021 ft | 412 kts | 2° |
| 2026-05-03 22:58 | 51.97050 | 13.93409 | 19694 ft | 413 kts | 2° |
| 2026-05-03 22:58 | 51.99918 | 13.93830 | 20312 ft | 416 kts | 2° |
| 2026-05-03 22:58 | 52.02810 | 13.94254 | 20887 ft | 419 kts | 2° |
| 2026-05-03 22:58 | 52.05721 | 13.94681 | 21472 ft | 422 kts | 2° |
| 2026-05-03 22:59 | 52.08664 | 13.95113 | 22072 ft | 425 kts | 2° |
| 2026-05-03 22:59 | 52.11617 | 13.95548 | 22676 ft | 427 kts | 2° |
| 2026-05-03 22:59 | 52.14587 | 13.95985 | 23262 ft | 430 kts | 2° |
| 2026-05-03 22:59 | 52.17576 | 13.96426 | 23780 ft | 433 kts | 2° |
| 2026-05-03 23:00 | 52.20588 | 13.96872 | 24253 ft | 436 kts | 2° |
| 2026-05-03 23:00 | 52.23621 | 13.97320 | 24706 ft | 439 kts | 2° |
| 2026-05-03 23:00 | 52.26678 | 13.97773 | 25165 ft | 442 kts | 2° |
| 2026-05-03 23:00 | 52.29750 | 13.98229 | 25630 ft | 445 kts | 2° |
| 2026-05-03 23:01 | 52.32841 | 13.98688 | 26093 ft | 447 kts | 2° |
| 2026-05-03 23:01 | 52.35911 | 13.99145 | 26505 ft | 451 kts | 2° |
| 2026-05-03 23:01 | 52.39044 | 13.99612 | 26934 ft | 454 kts | 2° |
| 2026-05-03 23:01 | 52.42202 | 14.00083 | 27378 ft | 457 kts | 2° |
| 2026-05-03 23:02 | 52.45375 | 14.00558 | 27801 ft | 460 kts | 2° |
| 2026-05-03 23:02 | 52.48571 | 14.01036 | 28213 ft | 462 kts | 2° |
| 2026-05-03 23:02 | 52.51782 | 14.01518 | 28613 ft | 465 kts | 2° |
| 2026-05-03 23:02 | 52.55021 | 14.02004 | 29007 ft | 468 kts | 2° |
| 2026-05-03 23:03 | 52.58272 | 14.02493 | 29404 ft | 471 kts | 2° |
| 2026-05-03 23:03 | 52.61550 | 14.02925 | 29783 ft | 473 kts | 0° |
| 2026-05-03 23:03 | 52.64845 | 14.03130 | 30119 ft | 475 kts | 358° |
| 2026-05-03 23:03 | 52.68157 | 14.03208 | 30437 ft | 477 kts | 357° |
| 2026-05-03 23:04 | 52.71471 | 14.03238 | 30836 ft | 476 kts | 357° |
| 2026-05-03 23:04 | 52.74775 | 14.03265 | 31332 ft | 473 kts | 357° |
| 2026-05-03 23:04 | 52.78062 | 14.03306 | 31828 ft | 471 kts | 358° |
| 2026-05-03 23:04 | 52.80227 | 14.03343 | 32127 ft | 470 kts | 358° |
| 2026-05-03 23:05 | 52.83496 | 14.03410 | 32542 ft | 469 kts | 358° |
| 2026-05-03 23:05 | 52.86758 | 14.03489 | 32947 ft | 469 kts | 358° |
| 2026-05-03 23:05 | 52.90012 | 14.03573 | 33375 ft | 467 kts | 358° |
| 2026-05-03 23:05 | 52.93259 | 14.03660 | 33817 ft | 466 kts | 358° |
| 2026-05-03 23:06 | 52.96493 | 14.03748 | 34164 ft | 465 kts | 358° |
| 2026-05-03 23:06 | 52.99731 | 14.03835 | 34467 ft | 465 kts | 358° |
| 2026-05-03 23:06 | 53.02961 | 14.03922 | 34769 ft | 464 kts | 358° |
| 2026-05-03 23:06 | 53.06189 | 14.04009 | 35104 ft | 463 kts | 358° |
| 2026-05-03 23:07 | 53.09409 | 14.04095 | 35417 ft | 463 kts | 358° |
| 2026-05-03 23:07 | 53.12629 | 14.04181 | 35712 ft | 462 kts | 358° |
| 2026-05-03 23:07 | 53.15846 | 14.04266 | 35928 ft | 464 kts | 358° |
| 2026-05-03 23:08 | 53.22335 | 14.04438 | 35901 ft | 467 kts | 358° |
| 2026-05-03 23:08 | 53.24244 | 14.04489 | 35892 ft | 466 kts | 358° |
| 2026-05-03 23:10 | 53.27855 | 14.04588 | 35891 ft | 462 kts | 358° |
| 2026-05-03 23:11 | 53.34259 | 14.04762 | 35903 ft | 459 kts | 358° |
| 2026-05-03 23:11 | 53.40634 | 14.04934 | 35895 ft | 457 kts | 358° |
| 2026-05-03 23:12 | 53.46995 | 14.05105 | 35906 ft | 457 kts | 357° |
| 2026-05-03 23:12 | 53.53370 | 14.05277 | 35902 ft | 459 kts | 357° |
| 2026-05-03 23:13 | 53.59765 | 14.05450 | 35901 ft | 461 kts | 357° |
| 2026-05-03 23:13 | 53.66193 | 14.05626 | 35894 ft | 463 kts | 357° |
| 2026-05-03 23:14 | 53.72656 | 14.05803 | 35880 ft | 466 kts | 357° |
| 2026-05-03 23:14 | 53.79114 | 14.05980 | 35889 ft | 467 kts | 357° |
| 2026-05-03 23:15 | 53.85619 | 14.06161 | 35878 ft | 468 kts | 357° |
| 2026-05-03 23:15 | 53.92136 | 14.06342 | 35887 ft | 468 kts | 357° |
| 2026-05-03 23:16 | 53.98654 | 14.06523 | 35885 ft | 468 kts | 357° |
| 2026-05-03 23:16 | 54.05159 | 14.06705 | 35882 ft | 467 kts | 357° |
| 2026-05-03 23:17 | 54.11659 | 14.06887 | 35876 ft | 466 kts | 357° |
| 2026-05-03 23:17 | 54.18132 | 14.07068 | 35868 ft | 465 kts | 357° |
| 2026-05-03 23:18 | 54.24591 | 14.07250 | 35869 ft | 464 kts | 357° |
| 2026-05-03 23:18 | 54.31039 | 14.07431 | 35865 ft | 463 kts | 357° |
| 2026-05-03 23:19 | 54.37472 | 14.07613 | 35859 ft | 462 kts | 357° |
| 2026-05-03 23:19 | 54.43900 | 14.07795 | 35858 ft | 462 kts | 357° |
| 2026-05-03 23:20 | 54.50330 | 14.07978 | 35864 ft | 462 kts | 356° |
| 2026-05-03 23:20 | 54.56766 | 14.08160 | 35854 ft | 463 kts | 356° |
| 2026-05-03 23:21 | 54.63127 | 14.07174 | 35857 ft | 458 kts | 346° |
| 2026-05-03 23:21 | 54.69418 | 14.05382 | 35845 ft | 459 kts | 346° |
| 2026-05-03 23:22 | 54.78905 | 14.02820 | 35846 ft | 462 kts | 347° |
| 2026-05-03 23:22 | 54.85274 | 14.01173 | 35839 ft | 463 kts | 347° |
| 2026-05-03 23:23 | 54.91597 | 13.99529 | 35833 ft | 464 kts | 346° |
| 2026-05-03 23:23 | 54.97980 | 13.97487 | 35852 ft | 462 kts | 343° |
| 2026-05-03 23:24 | 55.04262 | 13.95146 | 35837 ft | 461 kts | 342° |
| 2026-05-03 23:24 | 55.10499 | 13.92835 | 35830 ft | 461 kts | 343° |
| 2026-05-03 23:25 | 55.16782 | 13.90558 | 35830 ft | 460 kts | 343° |
| 2026-05-03 23:25 | 55.23051 | 13.88304 | 35844 ft | 460 kts | 343° |
| 2026-05-03 23:26 | 55.29274 | 13.86064 | 35836 ft | 460 kts | 343° |
| 2026-05-03 23:26 | 55.35605 | 13.83776 | 35828 ft | 459 kts | 343° |
| 2026-05-03 23:27 | 55.41841 | 13.81514 | 35824 ft | 460 kts | 343° |
| 2026-05-03 23:27 | 55.48124 | 13.79226 | 35821 ft | 460 kts | 343° |
| 2026-05-03 23:28 | 55.54396 | 13.76935 | 35840 ft | 460 kts | 343° |
| 2026-05-03 23:28 | 55.60678 | 13.74633 | 35839 ft | 461 kts | 343° |
| 2026-05-03 23:29 | 55.66967 | 13.72321 | 35832 ft | 462 kts | 343° |
| 2026-05-03 23:29 | 55.73260 | 13.70001 | 35833 ft | 462 kts | 342° |
| 2026-05-03 23:30 | 55.79555 | 13.67672 | 35839 ft | 462 kts | 342° |
| 2026-05-03 23:30 | 55.85843 | 13.65338 | 35838 ft | 462 kts | 342° |
| 2026-05-03 23:31 | 55.92145 | 13.62990 | 35834 ft | 463 kts | 342° |
| 2026-05-03 23:31 | 55.95287 | 13.61812 | 35208 ft | 473 kts | 342° |
| 2026-05-03 23:31 | 55.98506 | 13.60604 | 34551 ft | 473 kts | 342° |
| 2026-05-03 23:32 | 56.01723 | 13.59401 | 33949 ft | 470 kts | 342° |
| 2026-05-03 23:32 | 56.04914 | 13.58209 | 33366 ft | 467 kts | 342° |
| 2026-05-03 23:32 | 56.08077 | 13.57025 | 32789 ft | 462 kts | 342° |
| 2026-05-03 23:32 | 56.11209 | 13.55850 | 32268 ft | 458 kts | 342° |
| 2026-05-03 23:33 | 56.14312 | 13.54682 | 31737 ft | 453 kts | 342° |
| 2026-05-03 23:33 | 56.17379 | 13.53524 | 31218 ft | 449 kts | 342° |
| 2026-05-03 23:33 | 56.20422 | 13.52372 | 30708 ft | 445 kts | 342° |
| 2026-05-03 23:33 | 56.23435 | 13.51229 | 30210 ft | 441 kts | 342° |
| 2026-05-03 23:34 | 56.26421 | 13.50095 | 29686 ft | 437 kts | 342° |
| 2026-05-03 23:34 | 56.29382 | 13.48968 | 29126 ft | 433 kts | 342° |
| 2026-05-03 23:34 | 56.32314 | 13.47851 | 28630 ft | 428 kts | 342° |
| 2026-05-03 23:34 | 56.35211 | 13.46746 | 28121 ft | 424 kts | 342° |
| 2026-05-03 23:35 | 56.38081 | 13.45650 | 27640 ft | 419 kts | 342° |
| 2026-05-03 23:35 | 56.40923 | 13.44562 | 27138 ft | 416 kts | 342° |
| 2026-05-03 23:35 | 56.43739 | 13.43482 | 26653 ft | 412 kts | 342° |
| 2026-05-03 23:35 | 56.46530 | 13.42410 | 26170 ft | 409 kts | 342° |
| 2026-05-03 23:36 | 56.49304 | 13.41343 | 25694 ft | 405 kts | 342° |
| 2026-05-03 23:36 | 56.52050 | 13.40285 | 25248 ft | 403 kts | 343° |
| 2026-05-03 23:36 | 56.54783 | 13.39230 | 24770 ft | 401 kts | 343° |
| 2026-05-03 23:36 | 56.57502 | 13.38179 | 24303 ft | 399 kts | 343° |
| 2026-05-03 23:37 | 56.60209 | 13.37131 | 23825 ft | 397 kts | 343° |
| 2026-05-03 23:37 | 56.62905 | 13.36086 | 23343 ft | 396 kts | 343° |
| 2026-05-03 23:37 | 56.65593 | 13.35044 | 22801 ft | 393 kts | 343° |
| 2026-05-03 23:37 | 56.68257 | 13.34010 | 22326 ft | 390 kts | 343° |
| 2026-05-03 23:38 | 56.70906 | 13.32978 | 21850 ft | 387 kts | 342° |
| 2026-05-03 23:38 | 56.73444 | 13.31542 | 21383 ft | 378 kts | 332° |
| 2026-05-03 23:38 | 56.75744 | 13.29376 | 20947 ft | 369 kts | 324° |
| 2026-05-03 23:38 | 56.77949 | 13.27014 | 20499 ft | 366 kts | 323° |
| 2026-05-03 23:39 | 56.80131 | 13.24644 | 20067 ft | 364 kts | 323° |
| 2026-05-03 23:39 | 56.82298 | 13.22293 | 19622 ft | 362 kts | 323° |
| 2026-05-03 23:39 | 56.84460 | 13.19958 | 19184 ft | 360 kts | 323° |
| 2026-05-03 23:39 | 56.86612 | 13.17644 | 18744 ft | 358 kts | 323° |
| 2026-05-03 23:40 | 56.88757 | 13.15344 | 18317 ft | 357 kts | 324° |
| 2026-05-03 23:40 | 56.90893 | 13.13054 | 17833 ft | 355 kts | 324° |
| 2026-05-03 23:40 | 56.93022 | 13.10771 | 17361 ft | 353 kts | 324° |
| 2026-05-03 23:40 | 56.95137 | 13.08503 | 16901 ft | 351 kts | 324° |
| 2026-05-03 23:41 | 56.97233 | 13.06253 | 16603 ft | 345 kts | 323° |
| 2026-05-03 23:41 | 56.99294 | 13.04037 | 16206 ft | 343 kts | 324° |
| 2026-05-03 23:41 | 57.01315 | 13.01858 | 15800 ft | 340 kts | 324° |
| 2026-05-03 23:41 | 57.03350 | 12.99663 | 15373 ft | 338 kts | 324° |
| 2026-05-03 23:42 | 57.05374 | 12.97478 | 14957 ft | 336 kts | 324° |
| 2026-05-03 23:42 | 57.07384 | 12.95305 | 14541 ft | 335 kts | 324° |
| 2026-05-03 23:42 | 57.09399 | 12.93160 | 14122 ft | 334 kts | 328° |
| 2026-05-03 23:42 | 57.11600 | 12.91718 | 13791 ft | 337 kts | 341° |
| 2026-05-03 23:43 | 57.13862 | 12.90732 | 13472 ft | 333 kts | 342° |
| 2026-05-03 23:43 | 57.16134 | 12.89776 | 12701 ft | 341 kts | 342° |
| 2026-05-03 23:43 | 57.18441 | 12.88785 | 12220 ft | 340 kts | 342° |
| 2026-05-03 23:43 | 57.20732 | 12.87777 | 11787 ft | 337 kts | 342° |
| 2026-05-03 23:44 | 57.22999 | 12.86760 | 11365 ft | 334 kts | 342° |
| 2026-05-03 23:44 | 57.25251 | 12.85735 | 10964 ft | 332 kts | 341° |
| 2026-05-03 23:44 | 57.27486 | 12.84710 | 10571 ft | 330 kts | 341° |
| 2026-05-03 23:44 | 57.29705 | 12.83688 | 10193 ft | 327 kts | 341° |
| 2026-05-03 23:45 | 57.31878 | 12.82689 | 10058 ft | 316 kts | 341° |
| 2026-05-03 23:45 | 57.33978 | 12.81722 | 9911 ft | 306 kts | 341° |
| 2026-05-03 23:45 | 57.36018 | 12.80780 | 9782 ft | 296 kts | 341° |
| 2026-05-03 23:45 | 57.37998 | 12.79868 | 9398 ft | 296 kts | 341° |
| 2026-05-03 23:46 | 57.39991 | 12.78944 | 9084 ft | 294 kts | 341° |
| 2026-05-03 23:46 | 57.41969 | 12.78028 | 8733 ft | 292 kts | 341° |
| 2026-05-03 23:46 | 57.43936 | 12.77116 | 8426 ft | 290 kts | 341° |
| 2026-05-03 23:46 | 57.45885 | 12.76212 | 8121 ft | 288 kts | 342° |
| 2026-05-03 23:47 | 57.47818 | 12.75315 | 7810 ft | 285 kts | 342° |
| 2026-05-03 23:47 | 57.49736 | 12.74424 | 7512 ft | 283 kts | 342° |
| 2026-05-03 23:47 | 57.51640 | 12.73539 | 7217 ft | 281 kts | 342° |
| 2026-05-03 23:47 | 57.53530 | 12.72660 | 6917 ft | 279 kts | 342° |
| 2026-05-03 23:48 | 57.55406 | 12.71785 | 6628 ft | 277 kts | 343° |
| 2026-05-03 23:48 | 57.57269 | 12.70919 | 6351 ft | 275 kts | 344° |
| 2026-05-03 23:48 | 57.59120 | 12.70064 | 6046 ft | 273 kts | 344° |
| 2026-05-03 23:48 | 57.60955 | 12.69202 | 5732 ft | 271 kts | 342° |
| 2026-05-03 23:49 | 57.62724 | 12.68071 | 5443 ft | 267 kts | 337° |
| 2026-05-03 23:49 | 57.64445 | 12.66849 | 5288 ft | 260 kts | 337° |
| 2026-05-03 23:49 | 57.66126 | 12.65659 | 5051 ft | 260 kts | 337° |
| 2026-05-03 23:49 | 57.67800 | 12.64409 | 4760 ft | 257 kts | 332° |
| 2026-05-03 23:50 | 57.69312 | 12.62681 | 4490 ft | 254 kts | 319° |
| 2026-05-03 23:50 | 57.70171 | 12.61221 | 4305 ft | 251 kts | 310° |
| 2026-05-03 23:50 | 57.71468 | 12.57734 | 3947 ft | 245 kts | 294° |
| 2026-05-03 23:50 | 57.72085 | 12.54833 | 3822 ft | 232 kts | 288° |
| 2026-05-03 23:51 | 57.72649 | 12.52110 | 3725 ft | 217 kts | 289° |
| 2026-05-03 23:51 | 57.73186 | 12.49576 | 3618 ft | 202 kts | 289° |
| 2026-05-03 23:51 | 57.73682 | 12.47234 | 3477 ft | 185 kts | 289° |
| 2026-05-03 23:51 | 57.74160 | 12.44990 | 3007 ft | 185 kts | 289° |
| 2026-05-03 23:52 | 57.74562 | 12.42755 | 2644 ft | 176 kts | 279° |
| 2026-05-03 23:52 | 57.74653 | 12.40589 | 2417 ft | 160 kts | 265° |
| 2026-05-03 23:52 | 57.74556 | 12.39233 | 2245 ft | 152 kts | 257° |
| 2026-05-03 23:52 | 57.74227 | 12.37388 | 2057 ft | 149 kts | 245° |
| 2026-05-03 23:53 | 57.73691 | 12.35736 | 1896 ft | 150 kts | 233° |
| 2026-05-03 23:53 | 57.72958 | 12.34337 | 1699 ft | 153 kts | 218° |
| 2026-05-03 23:53 | 57.72056 | 12.33280 | 1500 ft | 152 kts | 211° |
| 2026-05-03 23:53 | 57.71142 | 12.32402 | 1314 ft | 146 kts | 208° |
| 2026-05-03 23:54 | 57.70233 | 12.31571 | 1106 ft | 146 kts | 208° |
| 2026-05-03 23:54 | 57.69312 | 12.30732 | 920 ft | 147 kts | 207° |
| 2026-05-03 23:54 | 57.68413 | 12.29908 | 704 ft | 141 kts | 208° |
| 2026-05-03 23:54 | 57.67571 | 12.29133 | 575 ft | 132 kts | 208° |
| 2026-05-03 23:55 | 57.66825 | 12.28405 | 526 ft | 107 kts | 198° |
| 2026-05-03 23:55 | 57.66256 | 12.27944 | 519 ft | 68 kts | 204° |
| 2026-05-03 23:55 | 57.65954 | 12.27689 | 524 ft | 33 kts | 194° |
| 2026-05-03 23:55 | 57.65754 | 12.27679 | 527 ft | 20 kts | 166° |
| 2026-05-03 23:56 | 57.65730 | 12.27707 | 528 ft | 4 kts | 127° |
| 2026-05-03 23:56 | 57.65712 | 12.27770 | 527 ft | 2 kts | 106° |
| 2026-05-03 23:56 | 57.65715 | 12.27790 | 527 ft | 2 kts | 60° |
| 2026-05-03 23:56 | 57.65724 | 12.27806 | 526 ft | 2 kts | 40° |
| 2026-05-03 23:57 | 57.65733 | 12.27819 | 526 ft | 2 kts | 35° |
| 2026-05-03 23:57 | 57.65736 | 12.27822 | 526 ft | 0 kts | 35° |
| 2026-05-04 00:00 | 57.65772 | 12.27869 | 524 ft | 15 kts | 34° |
| 2026-05-04 00:01 | 57.65861 | 12.27982 | 524 ft | 15 kts | 33° |
| 2026-05-04 00:01 | 57.65953 | 12.28089 | 520 ft | 15 kts | 30° |
| 2026-05-04 00:01 | 57.66047 | 12.28186 | 507 ft | 15 kts | 27° |
| 2026-05-04 00:01 | 57.66145 | 12.28273 | 506 ft | 15 kts | 24° |
| 2026-05-04 00:02 | 57.66245 | 12.28350 | 508 ft | 16 kts | 21° |
| 2026-05-04 00:02 | 57.66345 | 12.28421 | 511 ft | 15 kts | 20° |
| 2026-05-04 00:02 | 57.66447 | 12.28491 | 510 ft | 15 kts | 21° |
| 2026-05-04 00:02 | 57.66547 | 12.28567 | 509 ft | 15 kts | 24° |
| 2026-05-04 00:03 | 57.66611 | 12.28618 | 507 ft | 8 kts | 12° |
| 2026-05-04 00:03 | 57.66655 | 12.28671 | 507 ft | 8 kts | 56° |
| 2026-05-04 00:03 | 57.66667 | 12.28767 | 506 ft | 8 kts | 89° |
| 2026-05-04 00:03 | 57.66687 | 12.28856 | 507 ft | 9 kts | 33° |
| 2026-05-04 00:04 | 57.66767 | 12.28930 | 508 ft | 8 kts | 37° |
| 2026-05-04 00:04 | 57.66792 | 12.29005 | 509 ft | 8 kts | 89° |
| 2026-05-04 00:04 | 57.66776 | 12.29098 | 512 ft | 8 kts | 119° |
| 2026-05-04 00:04 | 57.66751 | 12.29173 | 518 ft | 8 kts | 135° |
| 2026-05-04 00:05 | 57.66732 | 12.29253 | 519 ft | 8 kts | 115° |
| 2026-05-04 00:05 | 57.66730 | 12.29262 | 519 ft | 7 kts | 116° |
| 2026-05-04 00:05 | 57.66726 | 12.29278 | 519 ft | 0 kts | 116° |